createdAt,value
2022-10-05T00:01:00.236Z,73.98
2022-10-05T00:04:18.817Z,74.44
2022-10-05T00:07:22.120Z,73.73
2022-10-05T00:10:24.274Z,74.38
2022-10-05T00:13:28.997Z,74.86
2022-10-05T00:16:31.352Z,74.33
2022-10-05T00:19:36.679Z,74.51
2022-10-05T00:22:38.760Z,75.35
2022-10-05T00:25:40.873Z,75.58
2022-10-05T00:28:43.246Z,75.25
2022-10-05T00:31:45.314Z,75.65
2022-10-05T00:34:47.740Z,76.30
2022-10-05T00:37:54.879Z,76.02
2022-10-05T00:41:11.824Z,75.75
2022-10-05T00:44:34.810Z,75.50
2022-10-05T00:47:49.925Z,75.99
2022-10-05T00:51:26.312Z,75.31
2022-10-05T00:54:43.922Z,74.76
2022-10-05T00:58:03.180Z,74.18
2022-10-05T01:01:18.345Z,74.54
2022-10-05T01:04:26.148Z,74.22
2022-10-05T01:07:49.546Z,74.78
2022-10-05T01:11:11.829Z,74.06
2022-10-05T01:14:19.546Z,75.46
2022-10-05T01:17:25.093Z,75.41
2022-10-05T01:20:48.723Z,75.93
2022-10-05T01:23:56.754Z,75.90
2022-10-05T01:27:07.599Z,76.18
2022-10-05T01:30:12.363Z,76.02
2022-10-05T01:33:29.224Z,75.86
2022-10-05T01:36:55.437Z,76.55
2022-10-05T01:40:12.586Z,76.74
2022-10-05T01:43:36.268Z,77.11
2022-10-05T01:46:56.754Z,76.60
2022-10-05T01:50:18.979Z,76.93
2022-10-05T01:53:26.992Z,77.10
2022-10-05T01:56:53.311Z,76.80
2022-10-05T02:00:11.788Z,77.79
2022-10-05T02:03:25.329Z,77.33
2022-10-05T02:06:32.594Z,77.34
2022-10-05T02:09:40.966Z,78.07
2022-10-05T02:12:46.979Z,78.19
2022-10-05T02:15:55.356Z,77.87
2022-10-05T02:19:08.654Z,77.81
2022-10-05T02:22:22.107Z,77.30
2022-10-05T02:25:30.426Z,76.90
2022-10-05T02:28:43.120Z,77.21
2022-10-05T02:31:52.208Z,77.27
2022-10-05T02:35:01.809Z,77.25
2022-10-05T02:38:35.962Z,77.49
2022-10-05T02:41:46.009Z,77.11
2022-10-05T02:44:51.157Z,76.97
2022-10-05T02:48:03.538Z,77.59
2022-10-05T02:51:16.848Z,77.02
2022-10-05T02:54:58.634Z,77.34
2022-10-05T02:58:12.085Z,77.44
2022-10-05T03:01:23.751Z,77.56
2022-10-05T03:04:51.119Z,77.44
2022-10-05T03:08:02.581Z,77.56
2022-10-05T03:11:20.160Z,77.99
2022-10-05T03:14:39.747Z,77.23
2022-10-05T03:17:46.784Z,77.13
2022-10-05T03:20:54.517Z,77.08
2022-10-05T03:24:05.323Z,76.99
2022-10-05T03:27:36.789Z,76.97
2022-10-05T03:31:03.262Z,77.47
2022-10-05T03:34:15.339Z,77.83
2022-10-05T03:37:28.348Z,77.79
2022-10-05T03:40:40.418Z,78.13
2022-10-05T03:44:09.697Z,78.02
2022-10-05T03:47:34.855Z,78.58
2022-10-05T03:51:01.940Z,78.06
2022-10-05T03:54:40.272Z,78.61
2022-10-05T03:57:44.397Z,80.88
2022-10-05T04:00:53.209Z,80.71
2022-10-05T04:03:59.681Z,83.23
2022-10-05T04:07:02.749Z,84.70
2022-10-05T04:10:14.853Z,88.80
2022-10-05T04:13:42.846Z,92.21
2022-10-05T04:16:51.688Z,93.66
2022-10-05T04:20:05.145Z,94.79
2022-10-05T04:23:10.612Z,96.31
2022-10-05T04:26:34.112Z,96.87
2022-10-05T04:29:39.090Z,97.12
2022-10-05T04:32:55.868Z,96.87
2022-10-05T04:36:09.685Z,97.47
2022-10-05T04:39:44.658Z,95.28
2022-10-05T04:43:14.135Z,94.90
2022-10-05T04:46:34.583Z,93.50
2022-10-05T04:49:42.387Z,92.60
2022-10-05T04:53:17.550Z,90.81
2022-10-05T04:56:30.181Z,90.38
2022-10-05T04:59:53.521Z,89.27
2022-10-05T05:03:13.970Z,89.06
2022-10-05T05:06:35.190Z,88.21
2022-10-05T05:10:14.584Z,86.78
2022-10-05T05:13:33.529Z,85.99
2022-10-05T05:16:41.608Z,86.11
2022-10-05T05:19:55.708Z,86.07
2022-10-05T05:23:19.022Z,85.06
2022-10-05T05:26:21.298Z,84.20
2022-10-05T05:29:58.972Z,84.42
2022-10-05T05:33:45.565Z,84.34
2022-10-05T05:37:13.820Z,83.10
2022-10-05T05:40:34.090Z,83.83
2022-10-05T05:44:03.770Z,83.55
2022-10-05T05:47:26.937Z,83.95
2022-10-05T05:50:53.617Z,81.26
2022-10-05T05:54:16.640Z,77.92
2022-10-05T05:57:39.551Z,78.01
2022-10-05T06:00:49.780Z,78.27
2022-10-05T06:04:09.874Z,77.47
2022-10-05T06:07:30.412Z,74.34
2022-10-05T06:10:46.921Z,73.21
2022-10-05T06:13:50.181Z,71.60
2022-10-05T06:17:01.012Z,69.80
2022-10-05T06:20:13.853Z,69.15
2022-10-05T06:23:25.765Z,68.50
2022-10-05T06:26:28.950Z,69.65
2022-10-05T06:29:48.839Z,68.09
2022-10-05T06:32:51.086Z,68.52
2022-10-05T06:35:58.319Z,68.13
2022-10-05T06:39:09.654Z,67.62
2022-10-05T06:42:14.892Z,67.35
2022-10-05T06:45:38.759Z,66.97
2022-10-05T06:49:22.842Z,66.03
2022-10-05T06:52:46.375Z,67.55
2022-10-05T06:55:48.377Z,68.56
2022-10-05T06:59:03.948Z,68.92
2022-10-05T07:02:40.208Z,68.82
2022-10-05T07:05:48.104Z,68.63
2022-10-05T07:09:12.351Z,68.62
2022-10-05T07:12:39.936Z,65.40
2022-10-05T07:15:53.786Z,63.03
2022-10-05T07:19:22.475Z,61.12
2022-10-05T07:22:34.799Z,60.55
2022-10-05T07:26:03.323Z,59.57
2022-10-05T07:29:08.414Z,59.03
2022-10-05T07:32:39.353Z,58.39
2022-10-05T07:36:27.131Z,58.99
2022-10-05T07:39:59.759Z,59.44
2022-10-05T07:43:40.112Z,58.48
2022-10-05T07:47:03.669Z,57.53
2022-10-05T07:50:29.141Z,58.63
2022-10-05T07:53:40.796Z,58.21
2022-10-05T07:56:49.003Z,57.16
2022-10-05T07:59:54.387Z,56.21
2022-10-05T08:03:14.985Z,56.08
2022-10-05T08:06:40.941Z,54.52
2022-10-05T08:10:03.374Z,53.64
2022-10-05T08:13:19.625Z,53.97
2022-10-05T08:16:25.942Z,53.25
2022-10-05T08:19:56.586Z,52.84
2022-10-05T08:23:24.129Z,52.28
2022-10-05T08:26:31.842Z,51.75
2022-10-05T08:29:51.647Z,51.70
2022-10-05T08:33:02.834Z,51.44
2022-10-05T08:36:10.897Z,51.66
2022-10-05T08:39:19.232Z,51.97
2022-10-05T08:42:51.896Z,52.90
2022-10-05T08:46:12.448Z,52.19
2022-10-05T08:49:38.228Z,52.58
2022-10-05T08:53:01.802Z,51.15
2022-10-05T08:56:27.822Z,51.01
2022-10-05T08:59:58.375Z,51.07
2022-10-05T09:03:19.271Z,51.03
2022-10-05T09:06:21.229Z,51.66
2022-10-05T09:09:35.246Z,50.97
2022-10-05T09:12:46.119Z,50.48
2022-10-05T09:16:29.304Z,50.23
2022-10-05T09:19:58.868Z,50.85
2022-10-05T09:23:12.675Z,49.01
2022-10-05T09:26:44.071Z,53.54
2022-10-05T09:29:58.051Z,56.89
2022-10-05T09:33:14.989Z,55.88
2022-10-05T09:36:58.574Z,57.30
2022-10-05T09:40:12.631Z,56.84
2022-10-05T09:43:32.511Z,56.50
2022-10-05T09:47:15.280Z,56.82
2022-10-05T09:50:41.086Z,55.63
2022-10-05T09:54:14.998Z,56.14
2022-10-05T09:57:25.654Z,57.13
2022-10-05T10:00:54.230Z,56.05
2022-10-05T10:04:10.279Z,57.60
2022-10-05T10:07:36.910Z,57.76
2022-10-05T10:11:15.467Z,58.80
2022-10-05T10:15:11.701Z,58.72
2022-10-05T10:18:25.770Z,57.67
2022-10-05T10:22:02.024Z,58.28
2022-10-05T10:25:19.909Z,59.16
2022-10-05T10:28:33.759Z,58.26
2022-10-05T10:31:51.011Z,58.46
2022-10-05T10:38:59.081Z,57.68
2022-10-05T10:42:49.015Z,58.80
2022-10-05T10:46:28.091Z,58.88
2022-10-05T10:49:59.739Z,59.85
2022-10-05T10:53:20.045Z,58.92
2022-10-05T10:56:39.560Z,59.54
2022-10-05T11:00:09.452Z,59.25
2022-10-05T11:03:41.289Z,59.18
2022-10-05T11:07:03.515Z,59.94
2022-10-05T11:10:26.471Z,59.65
2022-10-05T11:14:02.797Z,59.99
2022-10-05T11:17:29.596Z,59.66
2022-10-05T11:21:03.049Z,60.49
2022-10-05T11:24:29.367Z,60.51
2022-10-05T11:28:00.398Z,59.47
2022-10-05T11:31:09.025Z,60.51
2022-10-05T11:34:41.742Z,60.78
2022-10-05T11:38:05.249Z,60.99
2022-10-05T11:41:51.543Z,61.09
2022-10-05T11:45:24.430Z,59.89
2022-10-05T11:48:45.271Z,60.88
2022-10-05T11:52:21.906Z,59.83
2022-10-05T11:55:28.961Z,60.42
2022-10-05T11:58:41.397Z,60.31
2022-10-05T12:02:04.451Z,61.32
2022-10-05T12:05:12.524Z,60.39
2022-10-05T12:08:42.088Z,60.89
2022-10-05T12:12:05.161Z,60.58
2022-10-05T12:15:29.296Z,60.65
2022-10-05T12:18:34.305Z,61.85
2022-10-05T12:21:49.852Z,62.09
2022-10-05T12:25:21.988Z,62.80
2022-10-05T12:28:34.796Z,63.00
2022-10-05T12:31:39.704Z,62.96
2022-10-05T12:35:03.485Z,63.30
2022-10-05T12:38:18.318Z,62.84
2022-10-05T12:41:37.114Z,62.51
2022-10-05T12:44:57.367Z,62.21
2022-10-05T12:48:16.187Z,62.77
2022-10-05T12:51:43.338Z,63.28
2022-10-05T12:54:51.018Z,63.61
2022-10-05T12:58:02.293Z,62.82
2022-10-05T13:01:19.142Z,62.28
2022-10-05T13:04:57.682Z,62.59
2022-10-05T13:08:19.366Z,63.23
2022-10-05T13:11:31.355Z,62.11
2022-10-05T13:14:42.824Z,63.19
2022-10-05T13:17:56.949Z,62.72
2022-10-05T13:21:34.243Z,63.47
2022-10-05T13:25:05.858Z,62.63
2022-10-05T13:28:22.155Z,63.71
2022-10-05T13:31:31.168Z,63.43
2022-10-05T13:35:21.038Z,62.81
2022-10-05T13:38:54.440Z,63.70
2022-10-05T13:42:18.078Z,62.98
2022-10-05T13:45:23.926Z,63.01
2022-10-05T13:48:56.558Z,63.74
2022-10-05T13:52:10.544Z,62.74
2022-10-05T13:55:18.520Z,63.78
2022-10-05T13:58:44.851Z,63.29
2022-10-05T14:01:49.522Z,63.55
2022-10-05T14:04:59.699Z,64.93
2022-10-05T14:08:05.060Z,65.93
2022-10-05T14:11:22.452Z,63.90
2022-10-05T14:14:30.587Z,66.32
2022-10-05T14:17:41.291Z,66.69
2022-10-05T14:21:12.924Z,67.14
2022-10-05T14:24:43.585Z,66.58
2022-10-05T14:28:04.543Z,67.63
2022-10-05T14:31:15.831Z,67.01
2022-10-05T14:34:32.035Z,67.45
2022-10-05T14:37:53.925Z,66.09
2022-10-05T14:41:16.193Z,67.69
2022-10-05T14:44:24.739Z,67.59
2022-10-05T14:47:30.725Z,67.21
2022-10-05T14:50:32.949Z,66.73
2022-10-05T14:53:55.912Z,67.70
2022-10-05T14:57:06.608Z,67.47
2022-10-05T15:00:17.378Z,67.34
2022-10-05T15:03:47.430Z,68.10
2022-10-05T15:07:11.356Z,66.78
2022-10-05T15:10:36.724Z,67.36
2022-10-05T15:13:43.919Z,67.87
2022-10-05T15:16:46.578Z,67.47
2022-10-05T15:20:18.886Z,66.94
2022-10-05T15:23:27.273Z,67.13
2022-10-05T15:26:42.834Z,69.31
2022-10-05T15:30:00.917Z,67.37
2022-10-05T15:33:13.057Z,67.21
2022-10-05T15:36:20.929Z,67.10
2022-10-05T15:39:29.838Z,67.15
2022-10-05T15:42:38.434Z,68.37
2022-10-05T15:46:22.353Z,69.92
2022-10-05T15:49:46.913Z,68.55
2022-10-05T15:53:14.011Z,68.51
2022-10-05T15:56:27.771Z,68.49
2022-10-05T15:59:38.848Z,68.78
2022-10-05T16:02:43.691Z,69.14
2022-10-05T16:06:56.768Z,69.36
2022-10-05T16:10:05.033Z,69.86
2022-10-05T16:13:24.515Z,70.40
2022-10-05T16:16:50.887Z,70.47
2022-10-05T16:20:03.224Z,70.96
2022-10-05T16:23:26.933Z,70.76
2022-10-05T16:26:43.527Z,70.93
2022-10-05T16:30:10.015Z,71.70
2022-10-05T16:33:21.677Z,70.71
2022-10-05T16:36:44.613Z,69.74
2022-10-05T16:39:56.972Z,68.40
2022-10-05T16:43:22.489Z,67.44
2022-10-05T16:46:44.889Z,67.10
2022-10-05T16:49:56.688Z,66.13
2022-10-05T16:53:05.011Z,65.60
2022-10-05T16:56:13.752Z,64.90
2022-10-05T16:59:41.681Z,65.80
2022-10-05T17:03:10.169Z,64.63
2022-10-05T17:06:12.592Z,64.64
2022-10-05T17:09:20.639Z,64.31
2022-10-05T17:12:51.520Z,64.54
2022-10-05T17:16:04.357Z,64.58
2022-10-05T17:19:13.595Z,66.58
2022-10-05T17:22:34.665Z,67.14
2022-10-05T17:25:45.904Z,67.00
2022-10-05T17:29:08.430Z,66.42
2022-10-05T17:32:16.698Z,65.86
2022-10-05T17:35:22.744Z,66.14
2022-10-05T17:38:31.232Z,65.28
2022-10-05T17:41:33.543Z,65.08
2022-10-05T17:44:35.749Z,63.87
2022-10-05T17:48:04.208Z,64.68
2022-10-05T17:51:50.783Z,64.48
2022-10-05T17:55:19.117Z,64.98
2022-10-05T17:58:24.194Z,64.85
2022-10-05T18:01:40.435Z,64.86
2022-10-05T18:04:50.865Z,64.99
2022-10-05T18:08:17.427Z,65.71
2022-10-05T18:11:31.376Z,65.50
2022-10-05T18:14:54.209Z,66.11
2022-10-05T18:18:40.145Z,65.31
2022-10-05T18:22:01.499Z,66.06
2022-10-05T18:25:22.671Z,65.59
2022-10-05T18:28:57.621Z,66.24
2022-10-05T18:32:08.217Z,66.18
2022-10-05T18:35:17.183Z,66.16
2022-10-05T18:38:53.853Z,66.52
2022-10-05T18:42:13.604Z,66.44
2022-10-05T18:45:36.806Z,66.81
2022-10-05T18:48:44.388Z,67.38
2022-10-05T18:52:01.162Z,67.48
2022-10-05T18:55:38.204Z,67.65
2022-10-05T18:59:18.515Z,67.90
2022-10-05T19:02:38.775Z,67.95
2022-10-05T19:05:49.016Z,68.99
2022-10-05T19:08:54.121Z,68.63
2022-10-05T19:12:02.131Z,68.66
2022-10-05T19:15:19.208Z,68.96
2022-10-05T19:18:33.501Z,68.76
2022-10-05T19:22:06.378Z,69.58
2022-10-05T19:25:38.012Z,69.30
2022-10-05T19:28:51.326Z,69.89
2022-10-05T19:32:15.751Z,69.99
2022-10-05T19:35:38.275Z,69.98
2022-10-05T19:39:04.965Z,70.43
2022-10-05T19:42:40.850Z,70.58
2022-10-05T19:45:59.213Z,70.64
2022-10-05T19:49:01.438Z,70.60
2022-10-05T19:52:11.890Z,71.27
2022-10-05T19:55:17.411Z,71.15
2022-10-05T19:58:28.491Z,71.16
2022-10-05T20:01:34.150Z,71.06
2022-10-05T20:04:41.657Z,71.31
2022-10-05T20:07:43.810Z,71.63
2022-10-05T20:11:05.648Z,71.08
2022-10-05T20:14:09.655Z,71.52
2022-10-05T20:17:46.357Z,71.25
2022-10-05T20:20:49.445Z,70.73
2022-10-05T20:24:12.027Z,70.99
2022-10-05T20:27:36.824Z,71.42
2022-10-05T20:30:38.864Z,71.46
2022-10-05T20:33:41.125Z,71.86
2022-10-05T20:36:44.844Z,71.73
2022-10-05T20:39:48.267Z,71.44
2022-10-05T20:42:51.754Z,71.96
2022-10-05T20:45:53.943Z,71.78
2022-10-05T20:48:56.035Z,71.10
2022-10-05T20:51:59.271Z,71.97
2022-10-05T20:55:01.966Z,71.54
2022-10-05T20:58:09.207Z,71.92
2022-10-05T21:01:19.896Z,72.09
2022-10-05T21:04:25.107Z,72.54
2022-10-05T21:07:27.084Z,73.01
2022-10-05T21:10:29.079Z,72.48
2022-10-05T21:13:31.067Z,73.93
2022-10-05T21:16:34.262Z,73.90
2022-10-05T21:19:40.488Z,74.30
2022-10-05T21:22:42.597Z,74.01
2022-10-05T21:25:44.680Z,74.72
2022-10-05T21:28:46.916Z,74.71
2022-10-05T21:31:49.206Z,74.60
2022-10-05T21:34:51.227Z,74.58
2022-10-05T21:37:53.573Z,74.49
2022-10-05T21:40:55.788Z,74.79
2022-10-05T21:43:57.821Z,75.28
2022-10-05T21:47:00.134Z,74.87
2022-10-05T21:50:03.981Z,75.01
2022-10-05T21:53:08.738Z,75.25
2022-10-05T21:56:14.862Z,74.80
2022-10-05T21:59:20.398Z,73.54
2022-10-05T22:02:22.584Z,75.19
2022-10-05T22:05:24.813Z,75.06
2022-10-05T22:08:29.572Z,74.16
2022-10-05T22:11:32.619Z,74.38
2022-10-05T22:14:35.002Z,74.57
2022-10-05T22:17:37.095Z,74.30
2022-10-05T22:20:39.236Z,74.91
2022-10-05T22:23:42.831Z,73.93
2022-10-05T22:26:47.653Z,74.24
2022-10-05T22:29:51.387Z,73.34
2022-10-05T22:32:53.490Z,73.13
2022-10-05T22:35:55.770Z,73.04
2022-10-05T22:38:58.052Z,72.90
2022-10-05T22:42:00.532Z,73.56
2022-10-05T22:45:02.835Z,73.08
2022-10-05T22:48:05.037Z,72.77
2022-10-05T22:51:07.733Z,73.72
2022-10-05T22:54:09.730Z,72.76
2022-10-05T22:57:11.734Z,73.47
2022-10-05T23:00:13.997Z,74.16
2022-10-05T23:03:16.738Z,73.90
2022-10-05T23:06:20.714Z,74.08
2022-10-05T23:09:22.781Z,74.17
2022-10-05T23:12:27.042Z,74.80
2022-10-05T23:15:29.134Z,74.00
2022-10-05T23:18:31.961Z,74.94
2022-10-05T23:21:34.363Z,74.17
2022-10-05T23:24:36.342Z,73.96
2022-10-05T23:27:39.936Z,74.57
2022-10-05T23:30:42.317Z,73.73
2022-10-05T23:33:44.790Z,74.28
2022-10-05T23:36:46.871Z,73.49
2022-10-05T23:39:49.293Z,73.60
2022-10-05T23:42:51.837Z,74.35
2022-10-05T23:45:54.231Z,73.33
2022-10-05T23:48:56.415Z,74.58
2022-10-05T23:51:58.614Z,74.64
2022-10-05T23:55:01.022Z,74.80
2022-10-05T23:58:03.299Z,74.64
